sensor_id;sensor_type;location;lat;lon;timestamp;P1;durP1;ratioP1;P2;durP2;ratioP2
13331;SDS011;6735;51.456;12.626;2022-12-18T00:01:25;64.47;;;33.00;;
13331;SDS011;6735;51.456;12.626;2022-12-18T00:03:56;60.07;;;32.10;;
13331;SDS011;6735;51.456;12.626;2022-12-18T00:06:22;59.90;;;33.27;;
13331;SDS011;6735;51.456;12.626;2022-12-18T00:08:50;61.10;;;32.83;;
13331;SDS011;6735;51.456;12.626;2022-12-18T00:11:17;59.33;;;32.13;;
13331;SDS011;6735;51.456;12.626;2022-12-18T00:13:44;61.00;;;33.17;;
13331;SDS011;6735;51.456;12.626;2022-12-18T00:16:11;62.77;;;33.67;;
13331;SDS011;6735;51.456;12.626;2022-12-18T00:18:38;59.33;;;32.03;;
13331;SDS011;6735;51.456;12.626;2022-12-18T00:21:05;61.67;;;32.77;;
13331;SDS011;6735;51.456;12.626;2022-12-18T00:23:33;62.43;;;33.23;;
13331;SDS011;6735;51.456;12.626;2022-12-18T00:26:04;62.90;;;32.90;;
13331;SDS011;6735;51.456;12.626;2022-12-18T00:28:32;59.90;;;32.63;;
13331;SDS011;6735;51.456;12.626;2022-12-18T00:31:05;62.20;;;33.37;;
13331;SDS011;6735;51.456;12.626;2022-12-18T00:33:33;61.77;;;32.43;;
13331;SDS011;6735;51.456;12.626;2022-12-18T00:36:02;69.30;;;31.87;;
13331;SDS011;6735;51.456;12.626;2022-12-18T00:38:36;65.47;;;33.67;;
13331;SDS011;6735;51.456;12.626;2022-12-18T00:41:02;69.47;;;33.97;;
13331;SDS011;6735;51.456;12.626;2022-12-18T00:43:29;65.43;;;33.57;;
13331;SDS011;6735;51.456;12.626;2022-12-18T00:45:54;59.23;;;32.13;;
13331;SDS011;6735;51.456;12.626;2022-12-18T00:48:20;65.20;;;32.17;;
13331;SDS011;6735;51.456;12.626;2022-12-18T00:50:47;57.83;;;31.07;;
13331;SDS011;6735;51.456;12.626;2022-12-18T00:53:13;59.93;;;30.53;;
13331;SDS011;6735;51.456;12.626;2022-12-18T00:55:39;61.03;;;30.70;;
13331;SDS011;6735;51.456;12.626;2022-12-18T00:58:05;58.57;;;30.40;;
13331;SDS011;6735;51.456;12.626;2022-12-18T01:00:30;56.77;;;29.97;;
13331;SDS011;6735;51.456;12.626;2022-12-18T01:02:56;58.40;;;30.17;;
13331;SDS011;6735;51.456;12.626;2022-12-18T01:05:21;60.40;;;30.47;;
13331;SDS011;6735;51.456;12.626;2022-12-18T01:07:47;57.47;;;30.07;;
13331;SDS011;6735;51.456;12.626;2022-12-18T01:10:12;56.57;;;30.33;;
13331;SDS011;6735;51.456;12.626;2022-12-18T01:12:38;53.90;;;30.03;;
13331;SDS011;6735;51.456;12.626;2022-12-18T01:15:05;54.03;;;29.20;;
13331;SDS011;6735;51.456;12.626;2022-12-18T01:17:31;56.63;;;30.83;;
13331;SDS011;6735;51.456;12.626;2022-12-18T01:19:57;52.67;;;28.77;;
13331;SDS011;6735;51.456;12.626;2022-12-18T01:22:22;49.13;;;27.77;;
13331;SDS011;6735;51.456;12.626;2022-12-18T01:24:48;50.13;;;27.70;;
13331;SDS011;6735;51.456;12.626;2022-12-18T01:27:13;50.30;;;26.63;;
13331;SDS011;6735;51.456;12.626;2022-12-18T01:29:39;49.23;;;26.20;;
13331;SDS011;6735;51.456;12.626;2022-12-18T01:32:04;45.77;;;26.07;;
13331;SDS011;6735;51.456;12.626;2022-12-18T01:34:30;45.17;;;24.70;;
13331;SDS011;6735;51.456;12.626;2022-12-18T01:36:56;45.63;;;25.93;;
13331;SDS011;6735;51.456;12.626;2022-12-18T01:39:21;45.87;;;27.03;;
13331;SDS011;6735;51.456;12.626;2022-12-18T01:41:47;46.57;;;26.53;;
13331;SDS011;6735;51.456;12.626;2022-12-18T01:50:19;45.00;;;25.20;;
13331;SDS011;6735;51.456;12.626;2022-12-18T01:52:51;45.50;;;25.47;;
13331;SDS011;6735;51.456;12.626;2022-12-18T01:55:23;41.43;;;23.87;;
13331;SDS011;6735;51.456;12.626;2022-12-18T01:57:53;42.00;;;24.17;;
13331;SDS011;6735;51.456;12.626;2022-12-18T02:00:21;42.80;;;25.03;;
13331;SDS011;6735;51.456;12.626;2022-12-18T02:02:48;40.50;;;24.97;;
13331;SDS011;6735;51.456;12.626;2022-12-18T02:08:26;43.43;;;24.00;;
13331;SDS011;6735;51.456;12.626;2022-12-18T02:11:05;40.77;;;24.70;;
13331;SDS011;6735;51.456;12.626;2022-12-18T02:19:00;44.93;;;24.67;;
13331;SDS011;6735;51.456;12.626;2022-12-18T02:27:07;45.63;;;25.43;;
13331;SDS011;6735;51.456;12.626;2022-12-18T02:32:10;43.23;;;25.20;;
13331;SDS011;6735;51.456;12.626;2022-12-18T02:34:43;42.00;;;24.40;;
13331;SDS011;6735;51.456;12.626;2022-12-18T02:37:11;43.53;;;24.80;;
13331;SDS011;6735;51.456;12.626;2022-12-18T02:39:40;42.93;;;24.47;;
13331;SDS011;6735;51.456;12.626;2022-12-18T02:42:08;44.00;;;24.57;;
13331;SDS011;6735;51.456;12.626;2022-12-18T02:44:35;46.00;;;25.63;;
13331;SDS011;6735;51.456;12.626;2022-12-18T02:47:09;43.13;;;24.33;;
13331;SDS011;6735;51.456;12.626;2022-12-18T02:49:41;42.33;;;24.97;;
13331;SDS011;6735;51.456;12.626;2022-12-18T02:52:13;44.03;;;23.93;;
13331;SDS011;6735;51.456;12.626;2022-12-18T02:57:36;42.80;;;24.50;;
13331;SDS011;6735;51.456;12.626;2022-12-18T03:00:11;42.17;;;24.03;;
13331;SDS011;6735;51.456;12.626;2022-12-18T03:03:14;41.10;;;24.13;;
13331;SDS011;6735;51.456;12.626;2022-12-18T03:05:43;43.83;;;23.77;;
13331;SDS011;6735;51.456;12.626;2022-12-18T03:08:18;41.30;;;23.90;;
13331;SDS011;6735;51.456;12.626;2022-12-18T03:11:10;42.63;;;24.43;;
13331;SDS011;6735;51.456;12.626;2022-12-18T03:13:39;42.47;;;24.07;;
13331;SDS011;6735;51.456;12.626;2022-12-18T03:16:22;40.33;;;23.70;;
13331;SDS011;6735;51.456;12.626;2022-12-18T03:18:52;42.57;;;24.30;;
13331;SDS011;6735;51.456;12.626;2022-12-18T03:21:43;43.43;;;24.70;;
13331;SDS011;6735;51.456;12.626;2022-12-18T03:24:16;40.77;;;23.87;;
13331;SDS011;6735;51.456;12.626;2022-12-18T03:26:44;42.37;;;24.53;;
13331;SDS011;6735;51.456;12.626;2022-12-18T03:29:14;41.67;;;24.93;;
13331;SDS011;6735;51.456;12.626;2022-12-18T03:31:55;42.63;;;24.57;;
13331;SDS011;6735;51.456;12.626;2022-12-18T03:34:31;43.83;;;23.83;;
13331;SDS011;6735;51.456;12.626;2022-12-18T03:36:59;46.27;;;25.13;;
13331;SDS011;6735;51.456;12.626;2022-12-18T03:39:26;45.73;;;26.47;;
13331;SDS011;6735;51.456;12.626;2022-12-18T03:44:44;42.80;;;24.83;;
13331;SDS011;6735;51.456;12.626;2022-12-18T03:47:15;43.00;;;24.57;;
13331;SDS011;6735;51.456;12.626;2022-12-18T03:49:59;44.33;;;25.03;;
13331;SDS011;6735;51.456;12.626;2022-12-18T03:55:15;43.37;;;24.87;;
13331;SDS011;6735;51.456;12.626;2022-12-18T03:57:42;40.73;;;23.63;;
13331;SDS011;6735;51.456;12.626;2022-12-18T04:00:10;41.40;;;24.43;;
13331;SDS011;6735;51.456;12.626;2022-12-18T04:02:38;43.13;;;24.77;;
13331;SDS011;6735;51.456;12.626;2022-12-18T04:05:17;44.07;;;24.03;;
13331;SDS011;6735;51.456;12.626;2022-12-18T04:07:43;43.30;;;25.40;;
13331;SDS011;6735;51.456;12.626;2022-12-18T04:10:11;41.37;;;23.83;;
13331;SDS011;6735;51.456;12.626;2022-12-18T04:12:38;40.93;;;22.83;;
13331;SDS011;6735;51.456;12.626;2022-12-18T04:15:04;42.83;;;24.37;;
13331;SDS011;6735;51.456;12.626;2022-12-18T04:17:30;39.53;;;24.27;;
13331;SDS011;6735;51.456;12.626;2022-12-18T04:19:56;41.57;;;24.70;;
13331;SDS011;6735;51.456;12.626;2022-12-18T04:22:22;41.37;;;25.20;;
13331;SDS011;6735;51.456;12.626;2022-12-18T04:24:47;43.90;;;23.63;;
13331;SDS011;6735;51.456;12.626;2022-12-18T04:27:13;44.30;;;24.30;;
13331;SDS011;6735;51.456;12.626;2022-12-18T04:29:38;39.77;;;24.07;;
13331;SDS011;6735;51.456;12.626;2022-12-18T04:32:04;43.67;;;25.57;;
13331;SDS011;6735;51.456;12.626;2022-12-18T04:34:30;43.97;;;25.53;;
13331;SDS011;6735;51.456;12.626;2022-12-18T04:36:55;39.50;;;23.80;;
13331;SDS011;6735;51.456;12.626;2022-12-18T04:39:21;43.00;;;24.00;;
13331;SDS011;6735;51.456;12.626;2022-12-18T04:41:46;40.47;;;23.40;;
13331;SDS011;6735;51.456;12.626;2022-12-18T04:44:12;39.73;;;23.87;;
13331;SDS011;6735;51.456;12.626;2022-12-18T04:46:37;46.00;;;25.50;;
13331;SDS011;6735;51.456;12.626;2022-12-18T04:49:03;42.03;;;24.70;;
13331;SDS011;6735;51.456;12.626;2022-12-18T04:51:28;44.97;;;25.20;;
13331;SDS011;6735;51.456;12.626;2022-12-18T04:53:54;44.23;;;24.87;;
13331;SDS011;6735;51.456;12.626;2022-12-18T04:56:20;40.33;;;24.63;;
13331;SDS011;6735;51.456;12.626;2022-12-18T04:58:45;39.50;;;25.07;;
13331;SDS011;6735;51.456;12.626;2022-12-18T05:01:11;40.43;;;25.27;;
13331;SDS011;6735;51.456;12.626;2022-12-18T05:03:38;42.77;;;24.63;;
13331;SDS011;6735;51.456;12.626;2022-12-18T05:06:04;40.77;;;24.70;;
13331;SDS011;6735;51.456;12.626;2022-12-18T05:08:30;42.20;;;24.40;;
13331;SDS011;6735;51.456;12.626;2022-12-18T05:11:00;38.90;;;23.40;;
13331;SDS011;6735;51.456;12.626;2022-12-18T05:13:28;41.93;;;23.93;;
13331;SDS011;6735;51.456;12.626;2022-12-18T05:15:54;40.53;;;24.23;;
13331;SDS011;6735;51.456;12.626;2022-12-18T05:18:19;42.20;;;24.73;;
13331;SDS011;6735;51.456;12.626;2022-12-18T05:20:45;38.63;;;23.83;;
13331;SDS011;6735;51.456;12.626;2022-12-18T05:23:11;40.77;;;23.93;;
13331;SDS011;6735;51.456;12.626;2022-12-18T05:25:36;38.33;;;23.57;;
13331;SDS011;6735;51.456;12.626;2022-12-18T05:28:02;46.00;;;24.00;;
13331;SDS011;6735;51.456;12.626;2022-12-18T05:30:27;38.40;;;23.77;;
13331;SDS011;6735;51.456;12.626;2022-12-18T05:32:53;39.50;;;22.97;;
13331;SDS011;6735;51.456;12.626;2022-12-18T05:35:18;38.90;;;23.53;;
13331;SDS011;6735;51.456;12.626;2022-12-18T05:37:44;41.47;;;23.87;;
13331;SDS011;6735;51.456;12.626;2022-12-18T05:40:10;37.00;;;23.03;;
13331;SDS011;6735;51.456;12.626;2022-12-18T05:42:36;38.50;;;22.97;;
13331;SDS011;6735;51.456;12.626;2022-12-18T05:45:02;38.93;;;22.90;;
13331;SDS011;6735;51.456;12.626;2022-12-18T05:47:28;39.43;;;21.83;;
13331;SDS011;6735;51.456;12.626;2022-12-18T05:49:54;36.23;;;22.77;;
13331;SDS011;6735;51.456;12.626;2022-12-18T05:52:19;35.97;;;22.63;;
13331;SDS011;6735;51.456;12.626;2022-12-18T05:54:45;35.50;;;22.17;;
13331;SDS011;6735;51.456;12.626;2022-12-18T05:57:10;38.87;;;22.23;;
13331;SDS011;6735;51.456;12.626;2022-12-18T05:59:36;37.17;;;22.70;;
13331;SDS011;6735;51.456;12.626;2022-12-18T06:02:01;39.60;;;23.43;;
13331;SDS011;6735;51.456;12.626;2022-12-18T06:04:30;36.90;;;23.30;;
13331;SDS011;6735;51.456;12.626;2022-12-18T06:06:56;36.80;;;22.57;;
13331;SDS011;6735;51.456;12.626;2022-12-18T06:09:22;37.83;;;23.30;;
13331;SDS011;6735;51.456;12.626;2022-12-18T06:11:48;36.97;;;22.50;;
13331;SDS011;6735;51.456;12.626;2022-12-18T06:14:15;31.87;;;21.30;;
13331;SDS011;6735;51.456;12.626;2022-12-18T06:16:42;37.10;;;21.60;;
13331;SDS011;6735;51.456;12.626;2022-12-18T06:19:07;35.43;;;21.70;;
13331;SDS011;6735;51.456;12.626;2022-12-18T06:21:38;37.27;;;21.03;;
13331;SDS011;6735;51.456;12.626;2022-12-18T06:24:04;36.43;;;22.17;;
13331;SDS011;6735;51.456;12.626;2022-12-18T06:26:29;43.55;;;28.50;;
13331;SDS011;6735;51.456;12.626;2022-12-18T06:28:55;39.47;;;24.87;;
13331;SDS011;6735;51.456;12.626;2022-12-18T06:31:21;39.20;;;24.03;;
13331;SDS011;6735;51.456;12.626;2022-12-18T06:33:46;41.07;;;24.43;;
13331;SDS011;6735;51.456;12.626;2022-12-18T06:36:13;45.60;;;30.93;;
13331;SDS011;6735;51.456;12.626;2022-12-18T06:38:39;42.07;;;25.70;;
13331;SDS011;6735;51.456;12.626;2022-12-18T06:41:10;43.67;;;25.57;;
13331;SDS011;6735;51.456;12.626;2022-12-18T06:43:37;42.53;;;25.13;;
13331;SDS011;6735;51.456;12.626;2022-12-18T06:46:03;38.53;;;24.07;;
13331;SDS011;6735;51.456;12.626;2022-12-18T06:48:29;38.90;;;23.70;;
13331;SDS011;6735;51.456;12.626;2022-12-18T06:50:55;38.37;;;23.73;;
13331;SDS011;6735;51.456;12.626;2022-12-18T06:53:21;36.73;;;21.57;;
13331;SDS011;6735;51.456;12.626;2022-12-18T06:55:47;37.87;;;22.73;;
13331;SDS011;6735;51.456;12.626;2022-12-18T06:58:12;39.03;;;21.67;;
13331;SDS011;6735;51.456;12.626;2022-12-18T07:00:38;37.93;;;22.63;;
13331;SDS011;6735;51.456;12.626;2022-12-18T07:03:04;36.87;;;21.63;;
13331;SDS011;6735;51.456;12.626;2022-12-18T07:05:29;41.30;;;22.60;;
13331;SDS011;6735;51.456;12.626;2022-12-18T07:07:55;39.07;;;23.37;;
13331;SDS011;6735;51.456;12.626;2022-12-18T07:10:20;38.50;;;22.63;;
13331;SDS011;6735;51.456;12.626;2022-12-18T07:12:46;33.80;;;21.27;;
13331;SDS011;6735;51.456;12.626;2022-12-18T07:15:11;36.90;;;21.50;;
13331;SDS011;6735;51.456;12.626;2022-12-18T07:17:37;36.47;;;21.40;;
13331;SDS011;6735;51.456;12.626;2022-12-18T07:20:02;35.83;;;21.70;;
13331;SDS011;6735;51.456;12.626;2022-12-18T07:22:28;35.83;;;21.90;;
13331;SDS011;6735;51.456;12.626;2022-12-18T07:24:54;36.57;;;21.80;;
13331;SDS011;6735;51.456;12.626;2022-12-18T07:27:20;34.37;;;19.80;;
13331;SDS011;6735;51.456;12.626;2022-12-18T07:29:45;34.93;;;21.60;;
13331;SDS011;6735;51.456;12.626;2022-12-18T07:32:11;33.60;;;20.87;;
13331;SDS011;6735;51.456;12.626;2022-12-18T07:34:36;36.60;;;22.10;;
13331;SDS011;6735;51.456;12.626;2022-12-18T07:37:02;36.07;;;20.97;;
13331;SDS011;6735;51.456;12.626;2022-12-18T07:39:28;35.77;;;22.07;;
13331;SDS011;6735;51.456;12.626;2022-12-18T07:41:53;40.70;;;22.30;;
13331;SDS011;6735;51.456;12.626;2022-12-18T07:44:37;37.20;;;22.77;;
13331;SDS011;6735;51.456;12.626;2022-12-18T07:47:03;40.90;;;22.80;;
13331;SDS011;6735;51.456;12.626;2022-12-18T07:49:28;39.13;;;22.70;;
13331;SDS011;6735;51.456;12.626;2022-12-18T07:51:55;38.57;;;22.93;;
13331;SDS011;6735;51.456;12.626;2022-12-18T07:54:21;35.83;;;23.10;;
13331;SDS011;6735;51.456;12.626;2022-12-18T07:56:47;34.80;;;22.83;;
13331;SDS011;6735;51.456;12.626;2022-12-18T07:59:13;35.63;;;22.63;;
13331;SDS011;6735;51.456;12.626;2022-12-18T08:01:38;37.70;;;23.27;;
13331;SDS011;6735;51.456;12.626;2022-12-18T08:04:04;35.77;;;21.53;;
13331;SDS011;6735;51.456;12.626;2022-12-18T08:06:29;35.13;;;21.87;;
13331;SDS011;6735;51.456;12.626;2022-12-18T08:08:55;34.70;;;21.97;;
13331;SDS011;6735;51.456;12.626;2022-12-18T08:11:22;34.70;;;21.80;;
13331;SDS011;6735;51.456;12.626;2022-12-18T08:13:49;36.37;;;21.67;;
13331;SDS011;6735;51.456;12.626;2022-12-18T08:16:15;36.17;;;21.20;;
13331;SDS011;6735;51.456;12.626;2022-12-18T08:18:41;36.77;;;21.10;;
13331;SDS011;6735;51.456;12.626;2022-12-18T08:21:07;34.83;;;21.50;;
13331;SDS011;6735;51.456;12.626;2022-12-18T08:26:53;34.97;;;21.70;;
13331;SDS011;6735;51.456;12.626;2022-12-18T08:29:18;33.63;;;20.83;;
13331;SDS011;6735;51.456;12.626;2022-12-18T08:31:44;35.73;;;20.90;;
13331;SDS011;6735;51.456;12.626;2022-12-18T08:34:10;34.27;;;19.97;;
13331;SDS011;6735;51.456;12.626;2022-12-18T08:36:35;31.27;;;20.37;;
13331;SDS011;6735;51.456;12.626;2022-12-18T08:39:01;34.27;;;21.07;;
13331;SDS011;6735;51.456;12.626;2022-12-18T08:41:27;33.43;;;20.03;;
13331;SDS011;6735;51.456;12.626;2022-12-18T08:43:52;31.57;;;18.77;;
13331;SDS011;6735;51.456;12.626;2022-12-18T08:46:38;29.53;;;19.07;;
13331;SDS011;6735;51.456;12.626;2022-12-18T08:49:05;32.67;;;20.20;;
13331;SDS011;6735;51.456;12.626;2022-12-18T08:51:33;36.03;;;20.37;;
13331;SDS011;6735;51.456;12.626;2022-12-18T08:53:59;34.27;;;21.20;;
13331;SDS011;6735;51.456;12.626;2022-12-18T08:56:25;31.43;;;19.33;;
13331;SDS011;6735;51.456;12.626;2022-12-18T08:58:51;31.23;;;20.23;;
13331;SDS011;6735;51.456;12.626;2022-12-18T09:01:18;91.17;;;21.30;;
13331;SDS011;6735;51.456;12.626;2022-12-18T09:03:43;34.00;;;21.43;;
13331;SDS011;6735;51.456;12.626;2022-12-18T09:06:12;35.60;;;21.43;;
13331;SDS011;6735;51.456;12.626;2022-12-18T09:08:40;35.90;;;21.67;;
13331;SDS011;6735;51.456;12.626;2022-12-18T09:11:09;33.33;;;19.47;;
13331;SDS011;6735;51.456;12.626;2022-12-18T09:13:40;33.67;;;21.77;;
13331;SDS011;6735;51.456;12.626;2022-12-18T09:16:06;33.60;;;20.27;;
13331;SDS011;6735;51.456;12.626;2022-12-18T09:18:32;33.87;;;21.17;;
13331;SDS011;6735;51.456;12.626;2022-12-18T09:20:57;31.63;;;20.47;;
13331;SDS011;6735;51.456;12.626;2022-12-18T09:23:23;36.83;;;21.23;;
13331;SDS011;6735;51.456;12.626;2022-12-18T09:25:48;36.87;;;21.23;;
13331;SDS011;6735;51.456;12.626;2022-12-18T09:28:15;31.10;;;20.90;;
13331;SDS011;6735;51.456;12.626;2022-12-18T09:30:43;33.00;;;20.77;;
13331;SDS011;6735;51.456;12.626;2022-12-18T09:33:10;32.67;;;21.07;;
13331;SDS011;6735;51.456;12.626;2022-12-18T09:35:36;31.80;;;20.43;;
13331;SDS011;6735;51.456;12.626;2022-12-18T09:38:04;33.03;;;21.73;;
13331;SDS011;6735;51.456;12.626;2022-12-18T09:40:33;35.13;;;22.37;;
13331;SDS011;6735;51.456;12.626;2022-12-18T09:43:03;40.83;;;25.70;;
13331;SDS011;6735;51.456;12.626;2022-12-18T09:45:40;35.13;;;22.47;;
13331;SDS011;6735;51.456;12.626;2022-12-18T09:48:10;39.10;;;24.07;;
13331;SDS011;6735;51.456;12.626;2022-12-18T09:50:44;35.63;;;23.13;;
13331;SDS011;6735;51.456;12.626;2022-12-18T09:53:15;33.67;;;21.93;;
13331;SDS011;6735;51.456;12.626;2022-12-18T09:55:49;36.03;;;21.27;;
13331;SDS011;6735;51.456;12.626;2022-12-18T09:58:31;32.77;;;22.60;;
13331;SDS011;6735;51.456;12.626;2022-12-18T10:01:15;32.93;;;21.83;;
13331;SDS011;6735;51.456;12.626;2022-12-18T10:03:45;35.10;;;21.53;;
13331;SDS011;6735;51.456;12.626;2022-12-18T10:06:18;44.87;;;27.93;;
13331;SDS011;6735;51.456;12.626;2022-12-18T10:09:32;41.90;;;23.77;;
13331;SDS011;6735;51.456;12.626;2022-12-18T10:11:43;41.27;;;24.03;;
13331;SDS011;6735;51.456;12.626;2022-12-18T10:14:30;40.83;;;24.50;;
13331;SDS011;6735;51.456;12.626;2022-12-18T10:17:07;43.30;;;26.17;;
13331;SDS011;6735;51.456;12.626;2022-12-18T10:20:00;40.20;;;26.03;;
13331;SDS011;6735;51.456;12.626;2022-12-18T10:22:38;31.47;;;20.53;;
13331;SDS011;6735;51.456;12.626;2022-12-18T10:28:14;34.10;;;20.57;;
13331;SDS011;6735;51.456;12.626;2022-12-18T10:30:41;33.63;;;21.47;;
13331;SDS011;6735;51.456;12.626;2022-12-18T10:33:18;35.37;;;21.83;;
13331;SDS011;6735;51.456;12.626;2022-12-18T10:35:46;33.87;;;22.40;;
13331;SDS011;6735;51.456;12.626;2022-12-18T10:43:30;32.47;;;21.40;;
13331;SDS011;6735;51.456;12.626;2022-12-18T10:46:00;34.77;;;21.87;;
13331;SDS011;6735;51.456;12.626;2022-12-18T10:48:26;32.43;;;21.47;;
13331;SDS011;6735;51.456;12.626;2022-12-18T10:50:52;36.27;;;22.93;;
13331;SDS011;6735;51.456;12.626;2022-12-18T10:53:20;34.57;;;21.67;;
13331;SDS011;6735;51.456;12.626;2022-12-18T10:55:48;31.90;;;21.30;;
13331;SDS011;6735;51.456;12.626;2022-12-18T10:58:28;35.07;;;23.27;;
13331;SDS011;6735;51.456;12.626;2022-12-18T11:03:44;40.50;;;27.97;;
13331;SDS011;6735;51.456;12.626;2022-12-18T11:06:20;31.07;;;21.23;;
13331;SDS011;6735;51.456;12.626;2022-12-18T11:08:59;33.43;;;23.07;;
13331;SDS011;6735;51.456;12.626;2022-12-18T11:11:26;27.97;;;18.10;;
13331;SDS011;6735;51.456;12.626;2022-12-18T11:16:27;30.57;;;19.53;;
13331;SDS011;6735;51.456;12.626;2022-12-18T11:18:55;25.50;;;18.03;;
13331;SDS011;6735;51.456;12.626;2022-12-18T11:21:49;28.93;;;19.63;;
13331;SDS011;6735;51.456;12.626;2022-12-18T11:24:19;28.33;;;19.53;;
13331;SDS011;6735;51.456;12.626;2022-12-18T11:26:50;28.73;;;19.97;;
13331;SDS011;6735;51.456;12.626;2022-12-18T11:29:17;31.63;;;20.10;;
13331;SDS011;6735;51.456;12.626;2022-12-18T11:31:48;32.13;;;19.67;;
13331;SDS011;6735;51.456;12.626;2022-12-18T11:34:22;28.93;;;19.93;;
13331;SDS011;6735;51.456;12.626;2022-12-18T11:36:52;27.63;;;19.10;;
13331;SDS011;6735;51.456;12.626;2022-12-18T11:39:41;27.47;;;19.17;;
13331;SDS011;6735;51.456;12.626;2022-12-18T11:42:12;29.50;;;19.63;;
13331;SDS011;6735;51.456;12.626;2022-12-18T11:44:57;28.43;;;19.27;;
13331;SDS011;6735;51.456;12.626;2022-12-18T11:47:48;33.00;;;21.40;;
13331;SDS011;6735;51.456;12.626;2022-12-18T11:50:29;27.43;;;18.83;;
13331;SDS011;6735;51.456;12.626;2022-12-18T11:53:02;26.47;;;19.70;;
13331;SDS011;6735;51.456;12.626;2022-12-18T12:00:56;27.17;;;19.13;;
13331;SDS011;6735;51.456;12.626;2022-12-18T12:04:04;27.47;;;18.60;;
13331;SDS011;6735;51.456;12.626;2022-12-18T12:06:48;29.60;;;19.37;;
13331;SDS011;6735;51.456;12.626;2022-12-18T12:20:15;27.90;;;18.60;;
13331;SDS011;6735;51.456;12.626;2022-12-18T12:22:55;31.03;;;19.70;;
13331;SDS011;6735;51.456;12.626;2022-12-18T12:31:10;36.10;;;26.60;;
13331;SDS011;6735;51.456;12.626;2022-12-18T12:39:25;26.67;;;18.30;;
13331;SDS011;6735;51.456;12.626;2022-12-18T12:41:56;33.23;;;20.87;;
13331;SDS011;6735;51.456;12.626;2022-12-18T12:44:46;28.60;;;18.50;;
13331;SDS011;6735;51.456;12.626;2022-12-18T12:47:18;29.53;;;20.37;;
13331;SDS011;6735;51.456;12.626;2022-12-18T12:49:48;31.87;;;21.33;;
13331;SDS011;6735;51.456;12.626;2022-12-18T12:52:16;34.93;;;24.47;;
13331;SDS011;6735;51.456;12.626;2022-12-18T12:54:49;34.07;;;22.83;;
13331;SDS011;6735;51.456;12.626;2022-12-18T12:57:18;29.13;;;21.40;;
13331;SDS011;6735;51.456;12.626;2022-12-18T13:02:47;29.87;;;19.77;;
13331;SDS011;6735;51.456;12.626;2022-12-18T13:05:16;32.10;;;22.67;;
13331;SDS011;6735;51.456;12.626;2022-12-18T13:08:03;30.60;;;20.30;;
13331;SDS011;6735;51.456;12.626;2022-12-18T13:13:08;32.87;;;20.80;;
13331;SDS011;6735;51.456;12.626;2022-12-18T13:20:37;34.20;;;20.47;;
13331;SDS011;6735;51.456;12.626;2022-12-18T13:23:19;34.47;;;21.63;;
13331;SDS011;6735;51.456;12.626;2022-12-18T13:26:00;30.97;;;21.63;;
13331;SDS011;6735;51.456;12.626;2022-12-18T13:34:19;33.97;;;22.60;;
13331;SDS011;6735;51.456;12.626;2022-12-18T13:36:47;32.10;;;20.50;;
13331;SDS011;6735;51.456;12.626;2022-12-18T13:41:39;34.50;;;22.37;;
13331;SDS011;6735;51.456;12.626;2022-12-18T13:44:12;29.87;;;21.00;;
13331;SDS011;6735;51.456;12.626;2022-12-18T13:46:49;34.20;;;22.40;;
13331;SDS011;6735;51.456;12.626;2022-12-18T13:51:55;35.97;;;23.33;;
13331;SDS011;6735;51.456;12.626;2022-12-18T13:56:59;33.93;;;23.03;;
13331;SDS011;6735;51.456;12.626;2022-12-18T13:59:35;35.80;;;24.30;;
13331;SDS011;6735;51.456;12.626;2022-12-18T14:02:23;40.60;;;25.73;;
13331;SDS011;6735;51.456;12.626;2022-12-18T14:04:51;39.50;;;24.47;;
13331;SDS011;6735;51.456;12.626;2022-12-18T14:07:24;43.73;;;27.43;;
13331;SDS011;6735;51.456;12.626;2022-12-18T14:12:26;42.47;;;26.27;;
13331;SDS011;6735;51.456;12.626;2022-12-18T14:18:09;38.10;;;24.10;;
13331;SDS011;6735;51.456;12.626;2022-12-18T14:20:46;39.83;;;27.43;;
13331;SDS011;6735;51.456;12.626;2022-12-18T14:23:29;44.93;;;28.00;;
13331;SDS011;6735;51.456;12.626;2022-12-18T14:26:00;40.80;;;27.80;;
13331;SDS011;6735;51.456;12.626;2022-12-18T14:28:28;44.37;;;28.57;;
13331;SDS011;6735;51.456;12.626;2022-12-18T14:30:54;48.00;;;29.63;;
13331;SDS011;6735;51.456;12.626;2022-12-18T14:33:24;45.53;;;29.63;;
13331;SDS011;6735;51.456;12.626;2022-12-18T14:41:01;50.50;;;30.10;;
13331;SDS011;6735;51.456;12.626;2022-12-18T14:43:38;50.83;;;30.63;;
13331;SDS011;6735;51.456;12.626;2022-12-18T14:46:06;45.47;;;28.57;;
13331;SDS011;6735;51.456;12.626;2022-12-18T14:49:04;50.47;;;30.50;;
13331;SDS011;6735;51.456;12.626;2022-12-18T14:51:50;47.60;;;30.73;;
13331;SDS011;6735;51.456;12.626;2022-12-18T14:54:21;49.70;;;30.50;;
13331;SDS011;6735;51.456;12.626;2022-12-18T14:56:50;49.23;;;30.30;;
13331;SDS011;6735;51.456;12.626;2022-12-18T14:59:24;53.03;;;31.87;;
13331;SDS011;6735;51.456;12.626;2022-12-18T15:01:57;47.57;;;30.37;;
13331;SDS011;6735;51.456;12.626;2022-12-18T15:04:36;52.37;;;32.30;;
13331;SDS011;6735;51.456;12.626;2022-12-18T15:07:10;51.13;;;31.47;;
13331;SDS011;6735;51.456;12.626;2022-12-18T15:10:00;51.63;;;31.97;;
13331;SDS011;6735;51.456;12.626;2022-12-18T15:18:04;51.93;;;31.70;;
13331;SDS011;6735;51.456;12.626;2022-12-18T15:20:31;52.00;;;31.93;;
13331;SDS011;6735;51.456;12.626;2022-12-18T15:23:04;48.87;;;31.10;;
13331;SDS011;6735;51.456;12.626;2022-12-18T15:25:37;56.60;;;31.90;;
13331;SDS011;6735;51.456;12.626;2022-12-18T15:28:03;48.60;;;30.50;;
13331;SDS011;6735;51.456;12.626;2022-12-18T15:30:40;50.03;;;31.07;;
13331;SDS011;6735;51.456;12.626;2022-12-18T15:33:24;49.33;;;32.20;;
13331;SDS011;6735;51.456;12.626;2022-12-18T15:35:55;49.50;;;30.97;;
13331;SDS011;6735;51.456;12.626;2022-12-18T15:38:22;51.03;;;31.97;;
13331;SDS011;6735;51.456;12.626;2022-12-18T15:40:48;53.13;;;29.50;;
13331;SDS011;6735;51.456;12.626;2022-12-18T15:43:13;60.77;;;35.87;;
13331;SDS011;6735;51.456;12.626;2022-12-18T15:45:57;60.10;;;39.40;;
13331;SDS011;6735;51.456;12.626;2022-12-18T15:48:23;60.50;;;37.73;;
13331;SDS011;6735;51.456;12.626;2022-12-18T15:50:52;60.57;;;35.10;;
13331;SDS011;6735;51.456;12.626;2022-12-18T15:53:20;58.27;;;33.40;;
13331;SDS011;6735;51.456;12.626;2022-12-18T15:55:46;55.13;;;32.63;;
13331;SDS011;6735;51.456;12.626;2022-12-18T15:58:30;54.97;;;33.53;;
13331;SDS011;6735;51.456;12.626;2022-12-18T16:00:55;54.73;;;35.30;;
13331;SDS011;6735;51.456;12.626;2022-12-18T16:03:23;58.03;;;36.73;;
13331;SDS011;6735;51.456;12.626;2022-12-18T16:05:49;56.50;;;33.37;;
13331;SDS011;6735;51.456;12.626;2022-12-18T16:08:14;53.33;;;31.77;;
13331;SDS011;6735;51.456;12.626;2022-12-18T16:10:39;62.33;;;37.03;;
13331;SDS011;6735;51.456;12.626;2022-12-18T16:13:05;58.97;;;35.20;;
13331;SDS011;6735;51.456;12.626;2022-12-18T16:15:34;58.50;;;35.43;;
13331;SDS011;6735;51.456;12.626;2022-12-18T16:18:00;63.97;;;36.63;;
13331;SDS011;6735;51.456;12.626;2022-12-18T16:20:25;61.03;;;35.00;;
13331;SDS011;6735;51.456;12.626;2022-12-18T16:22:51;56.53;;;32.63;;
13331;SDS011;6735;51.456;12.626;2022-12-18T16:25:22;70.13;;;38.43;;
13331;SDS011;6735;51.456;12.626;2022-12-18T16:27:50;66.50;;;38.77;;
13331;SDS011;6735;51.456;12.626;2022-12-18T16:30:18;60.07;;;34.73;;
13331;SDS011;6735;51.456;12.626;2022-12-18T16:32:45;48.83;;;30.27;;